Flinterduin — PEBT — position and weather

sailwx.info

Track history (hours):
 
Tides and Currents Weather Stations Pressure Air Temp Water Temp Dewpoint Dewpoint Depression Visibility Wind Speed Wind Dir Waves Ship Positions

Flinterduin

Last reported at 2017-May-25 13:29 UTC. Time now 2017-May-25 14:13 UTC.
Position N 57°21' E 008°26'.

Length 112 m; beam 15 m.

Type: Cargo ship. MMSI: 246484000.

Date/timePositionNaut miles runAvg speedWind from/ knotsBaromVisibWave heightAir tempDewpointWater temp
2017-May-25 13:29N 57°21' E 008°26'5 9.6
2017-May-25 13:00N 57°23' E 008°34'5 9.7
2017-May-25 12:29N 57°26' E 008°42'5 9.7
2017-May-25 12:00N 57°28' E 008°50'5 9.7
2017-May-25 11:30N 57°30' E 008°58'5 9.8
2017-May-25 10:59N 57°33' E 009°06'5 9.8
2017-May-25 10:30N 57°35' E 009°14'5 9.9
2017-May-25 10:00N 57°38' E 009°22'5 9.6
2017-May-25 09:29N 57°40' E 009°30'510.0
2017-May-25 08:59N 57°42' E 009°38'510.1
2017-May-25 08:30N 57°45' E 009°46'5 9.9
2017-May-25 08:00N 57°46' E 009°55'510.1
2017-May-25 07:29N 57°48' E 010°04'510.1
2017-May-25 07:00N 57°49' E 010°13'510.3
2017-May-25 06:30N 57°49' E 010°22'5 9.7
2017-May-25 06:00N 57°49' E 010°32'5 9.1
2017-May-25 05:30N 57°49' E 010°40'4 8.3
2017-May-25 05:00N 57°48' E 010°48'5 8.7
2017-May-25 04:28N 57°44' E 010°54'5 9.4
2017-May-25 03:59N 57°41' E 011°00'5 9.9
2017-May-25 03:30N 57°38' E 011°07'510.0
2017-May-25 03:00N 57°35' E 011°14'5 9.6
2017-May-25 02:30N 57°32' E 011°21'5 9.2
2017-May-25 02:00N 57°29' E 011°27'5 9.0
2017-May-25 01:30N 57°24' E 011°30'5 9.8
2017-May-25 01:00N 57°20' E 011°31'510.5
2017-May-25 00:30N 57°15' E 011°35'510.9
2017-May-25 00:00N 57°10' E 011°38'610.8
2017-May-24 23:29N 57°04' E 011°42'610.4
2017-May-24 22:58N 56°59' E 011°45'510.4
2017-May-24 22:27N 56°54' E 011°49'510.1
2017-May-24 22:00N 56°50' E 011°52'40 9.7
2017-May-24 17:55N 56°14' E 012°23'410.3
2017-May-24 17:30N 56°11' E 012°28'510.0
2017-May-24 17:00N 56°07' E 012°34'5 9.4
2017-May-24 16:30N 56°04' E 012°39'4 7.9
2017-May-24 16:00N 55°60' E 012°42'4 8.4
2017-May-24 15:30N 55°56' E 012°45'4 8.2
2017-May-24 15:00N 55°52' E 012°45'4 8.6
2017-May-24 14:30N 55°48' E 012°43'9 8.8
2017-May-24 13:31N 55°39' E 012°42'4 7.5
2017-May-24 13:00N 55°35' E 012°42'3 7.0
2017-May-24 12:30N 55°32' E 012°43'4 8.5
2017-May-24 12:00N 55°28' E 012°42'4 8.7
2017-May-24 11:31N 55°23' E 012°41'4 8.7
2017-May-24 11:00N 55°19' E 012°41'4 8.7
2017-May-24 10:30N 55°17' E 012°48'5 9.5
2017-May-24 10:00N 55°15' E 012°55'5 9.6
2017-May-24 09:30N 55°12' E 013°02'5 9.8
2017-May-24 09:00N 55°09' E 013°09'19 9.7
2017-May-24 07:05N 54°58' E 013°35'2 9.1
2017-May-24 06:53N 54°57' E 013°37'3 9.1
2017-May-24 06:30N 54°54' E 013°41'12 9.6
2017-May-24 05:17N 54°47' E 013°57'10 9.5
2017-May-24 04:14N 54°41' E 014°10'28 9.3
2017-May-24 01:11N 54°40' E 014°59'210.2
2017-May-24 01:00N 54°41' E 015°03'710.2
2017-May-24 00:17N 54°42' E 015°15'310.3
2017-May-23 23:59N 54°43' E 015°20'810.4
2017-May-23 23:11N 54°45' E 015°34'310.4
2017-May-23 22:52N 54°46' E 015°40'7910.3
2017-May-23 15:10N 54°57' E 017°56'210.3
2017-May-23 15:00N 54°57' E 017°59'1010.3
2017-May-23 14:00N 54°57' E 018°17'510.3
2017-May-23 13:31N 54°58' E 018°26'510.4
2017-May-23 13:01N 54°58' E 018°35'510.0
2017-May-23 12:31N 54°56' E 018°43'5 9.4
2017-May-23 12:00N 54°52' E 018°48'5 9.9
2017-May-23 11:31N 54°49' E 018°54'5 9.6
2017-May-23 11:00N 54°45' E 018°60'4 8.5
2017-May-23 10:31N 54°41' E 018°59'510.0
2017-May-23 10:00N 54°36' E 018°56'510.0
2017-May-23 09:30N 54°32' E 018°51'510.2
2017-May-23 09:00N 54°29' E 018°44'5 9.3
2017-May-23 08:30N 54°26' E 018°39'2 4.8
2017-May-23 08:00N 54°23' E 018°40'1 1.0
2017-May-23 07:26N 54°23' E 018°39'0 0.0
2017-May-23 06:59N 54°23' E 018°39'0 0.0
2017-May-23 06:29N 54°23' E 018°39'0 0.0
2017-May-23 05:59N 54°23' E 018°39'0 0.0
2017-May-23 05:29N 54°23' E 018°39'0 0.0
2017-May-23 04:59N 54°23' E 018°39'0 0.0
2017-May-23 04:29N 54°23' E 018°39'0 0.0
2017-May-23 03:59N 54°23' E 018°39'0 0.0
2017-May-23 03:29N 54°23' E 018°39'0 0.0
2017-May-23 02:56N 54°23' E 018°39'0 0.0
2017-May-23 02:29N 54°23' E 018°39'0 0.0
2017-May-23 01:59N 54°23' E 018°39'0 0.0
2017-May-23 01:29N 54°23' E 018°39'0 0.0
2017-May-23 00:59N 54°23' E 018°39'0 0.0
2017-May-23 00:29N 54°23' E 018°39'0 0.0
2017-May-22 23:59N 54°23' E 018°39'0 0.0
2017-May-22 23:29N 54°23' E 018°39'0 0.0
2017-May-22 22:58N 54°23' E 018°39'0 0.0
2017-May-22 22:28N 54°23' E 018°39'0 0.0
2017-May-22 21:58N 54°23' E 018°39'0 0.0
2017-May-22 21:28N 54°23' E 018°39'0 0.0
2017-May-22 20:58N 54°23' E 018°39'0 0.0
2017-May-22 20:28N 54°23' E 018°39'0 0.0
2017-May-22 19:58N 54°23' E 018°39'0 0.0
2017-May-22 19:28N 54°23' E 018°39'0 0.0
2017-May-22 18:58N 54°23' E 018°39'0 0.0
2017-May-22 18:28N 54°23' E 018°39'0 0.0
2017-May-22 17:58N 54°23' E 018°39'0 0.0
2017-May-22 17:28N 54°23' E 018°39'0 0.0
2017-May-22 16:58N 54°23' E 018°39'0 0.0
2017-May-22 16:28N 54°23' E 018°39'0 0.0
2017-May-22 15:58N 54°23' E 018°39'0 0.0
2017-May-22 15:28N 54°23' E 018°39'0 0.0
2017-May-22 14:58N 54°23' E 018°39'0 0.0
2017-May-22 13:58N 54°23' E 018°39'0 0.0
2017-May-22 13:28N 54°23' E 018°39'0 0.0
2017-May-22 12:58N 54°23' E 018°39'0 0.0
2017-May-22 12:28N 54°23' E 018°39'0 0.0
2017-May-22 11:58N 54°23' E 018°39'0 0.0
2017-May-22 11:28N 54°23' E 018°39'0 0.0
2017-May-22 10:58N 54°23' E 018°39'0 0.0
2017-May-22 10:28N 54°23' E 018°39'0 0.0
2017-May-22 09:58N 54°23' E 018°39'0 0.0
2017-May-22 09:28N 54°23' E 018°39'0 0.0
2017-May-22 08:58N 54°23' E 018°39'0 0.0
2017-May-22 08:22N 54°23' E 018°39'0 0.0
2017-May-22 07:55N 54°23' E 018°39'0 0.0
2017-May-22 07:28N 54°23' E 018°39'0 0.0
2017-May-22 06:58N 54°23' E 018°39'0 0.0
2017-May-22 06:28N 54°23' E 018°39'0 0.0
2017-May-22 05:58N 54°23' E 018°39'0 0.0
2017-May-22 05:28N 54°23' E 018°39'0 0.0
2017-May-22 04:58N 54°23' E 018°39'0 0.0
2017-May-22 04:28N 54°23' E 018°39'0 0.0
2017-May-22 03:58N 54°23' E 018°39'0 0.0
2017-May-22 03:28N 54°23' E 018°39'0 0.0
2017-May-22 02:58N 54°23' E 018°39'0 0.0
2017-May-22 02:28N 54°23' E 018°39'0 0.0
2017-May-22 01:58N 54°23' E 018°39'0 0.0
2017-May-22 01:28N 54°23' E 018°39'0 0.0
2017-May-22 00:58N 54°23' E 018°39'0 0.0
2017-May-22 00:28N 54°23' E 018°39'0 0.0
2017-May-21 23:58N 54°23' E 018°39'0 0.0
2017-May-21 23:28N 54°23' E 018°39'0 0.0
2017-May-21 22:58N 54°23' E 018°39'0 0.0
2017-May-21 22:28N 54°23' E 018°39'0 0.0
2017-May-21 21:58N 54°23' E 018°39'0 0.0
2017-May-21 21:28N 54°23' E 018°39'0 0.0
2017-May-21 20:58N 54°23' E 018°39'0 0.0
2017-May-21 20:28N 54°23' E 018°39'0 0.0
2017-May-21 19:58N 54°23' E 018°39'0 0.0
2017-May-21 19:28N 54°23' E 018°39'0 0.0
2017-May-21 18:58N 54°23' E 018°39'0 0.0
2017-May-21 18:28N 54°23' E 018°39'0 0.0
2017-May-21 17:58N 54°23' E 018°39'0 0.0
2017-May-21 17:28N 54°23' E 018°39'0 0.0
2017-May-21 16:58N 54°23' E 018°39'0 0.0
2017-May-21 16:28N 54°23' E 018°39'0 0.0
2017-May-21 15:58N 54°23' E 018°39'0 0.0
2017-May-21 15:28N 54°23' E 018°39'0 0.0
2017-May-21 14:58N 54°23' E 018°39'0 0.0
2017-May-21 14:25N 54°23' E 018°39'0 0.0
2017-May-21 13:28N 54°23' E 018°39'0 0.0
2017-May-21 12:58N 54°23' E 018°39'0 0.0
2017-May-21 12:31N 54°23' E 018°39'0 0.0
2017-May-21 12:01N 54°23' E 018°39'0 0.0
2017-May-21 11:30N 54°23' E 018°39'0 0.0
2017-May-21 11:00N 54°23' E 018°39'0 0.0
2017-May-21 10:30N 54°23' E 018°39'0 0.0
2017-May-21 10:00N 54°23' E 018°39'0 0.0
2017-May-21 09:30N 54°23' E 018°39'0 0.0
2017-May-21 09:00N 54°23' E 018°39'0 0.0
2017-May-21 08:30N 54°23' E 018°39'0 0.0
2017-May-21 08:00N 54°23' E 018°39'0 0.0
2017-May-21 07:30N 54°23' E 018°39'0 0.0
2017-May-21 07:00N 54°23' E 018°39'0 0.0
2017-May-21 06:30N 54°23' E 018°39'0 0.0
2017-May-21 06:00N 54°23' E 018°39'0 0.0
2017-May-21 05:30N 54°23' E 018°39'0 0.0
2017-May-21 05:00N 54°23' E 018°39'0 0.0
2017-May-21 04:30N 54°23' E 018°39'0 0.0
2017-May-21 04:00N 54°23' E 018°39'0 0.0
2017-May-21 03:30N 54°23' E 018°39'0 0.0
2017-May-21 03:00N 54°23' E 018°39'0 0.0
2017-May-21 02:30N 54°23' E 018°39'0 0.0
2017-May-21 02:00N 54°23' E 018°39'0 0.0
2017-May-21 01:27N 54°23' E 018°39'0 0.0
2017-May-21 01:00N 54°23' E 018°39'0 0.0
2017-May-21 00:30N 54°23' E 018°39'0 0.0
2017-May-21 00:00N 54°23' E 018°39'0 0.0
2017-May-20 23:30N 54°23' E 018°39'0 0.0
2017-May-20 23:00N 54°23' E 018°39'0 0.0
2017-May-20 22:30N 54°23' E 018°39'0 0.0
2017-May-20 22:00N 54°23' E 018°39'0 0.0
2017-May-20 21:30N 54°23' E 018°39'0 0.0
2017-May-20 21:00N 54°23' E 018°39'0 0.0
2017-May-20 20:30N 54°23' E 018°39'0 0.0
2017-May-20 20:00N 54°23' E 018°39'0 0.0
2017-May-20 19:30N 54°23' E 018°39'0 0.0
2017-May-20 19:00N 54°23' E 018°39'0 0.0
2017-May-20 18:30N 54°23' E 018°39'0 0.0
2017-May-20 18:00N 54°23' E 018°39'0 0.0
2017-May-20 17:30N 54°23' E 018°39'0 0.0
2017-May-20 17:00N 54°23' E 018°39'0 0.0
2017-May-20 16:30N 54°23' E 018°39'0 0.0
2017-May-20 16:00N 54°23' E 018°39'0 0.0
2017-May-20 15:30N 54°23' E 018°39'0 0.0
2017-May-20 15:00N 54°23' E 018°39'0 0.0
2017-May-20 14:00N 54°23' E 018°39'0 0.0
2017-May-20 13:30N 54°23' E 018°39'0 0.0
2017-May-20 13:00N 54°23' E 018°39'0 0.0
2017-May-20 12:30N 54°23' E 018°39'0 0.0
2017-May-20 12:00N 54°23' E 018°39'0 0.0
2017-May-20 11:30N 54°23' E 018°39'0 0.0
2017-May-20 11:00N 54°23' E 018°39'0 0.0
2017-May-20 10:30N 54°23' E 018°39'0 0.0
2017-May-20 10:00N 54°23' E 018°39'0 0.0
2017-May-20 09:30N 54°23' E 018°39'0 0.0
2017-May-20 09:00N 54°23' E 018°39'0 0.0
2017-May-20 08:30N 54°23' E 018°39'0 0.0
2017-May-20 08:00N 54°23' E 018°39'0 0.0
2017-May-20 07:30N 54°23' E 018°39'0 0.0
2017-May-20 07:00N 54°23' E 018°39'0 0.0
2017-May-20 06:30N 54°23' E 018°39'0 0.0
2017-May-20 06:00N 54°23' E 018°39'0 0.0
2017-May-20 05:30N 54°23' E 018°39'0 0.0
2017-May-20 05:00N 54°23' E 018°39'0 0.0
2017-May-20 04:30N 54°23' E 018°39'0 0.0
2017-May-20 04:00N 54°23' E 018°39'0 0.0
2017-May-20 03:30N 54°23' E 018°39'0 0.0
2017-May-20 03:00N 54°23' E 018°39'0 0.0
2017-May-20 02:30N 54°23' E 018°39'0 0.0
2017-May-20 02:00N 54°23' E 018°39'0 0.0
2017-May-20 01:30N 54°23' E 018°39'0 0.0
2017-May-20 01:00N 54°23' E 018°39'0 0.0
2017-May-20 00:30N 54°23' E 018°39'0 0.0
2017-May-20 00:00N 54°23' E 018°39'0 0.0
2017-May-19 23:29N 54°23' E 018°39'0 0.0
2017-May-19 22:59N 54°23' E 018°39'0 0.0
2017-May-19 22:29N 54°23' E 018°39'0 0.0
2017-May-19 21:59N 54°23' E 018°39'0 0.0
2017-May-19 21:29N 54°23' E 018°39'0 0.0
2017-May-19 20:59N 54°23' E 018°39'0 0.0
2017-May-19 20:29N 54°23' E 018°39'0 0.0
2017-May-19 19:59N 54°23' E 018°39'0 0.0
2017-May-19 19:29N 54°23' E 018°39'0 0.0
2017-May-19 18:59N 54°23' E 018°39'0 0.0
2017-May-19 18:29N 54°23' E 018°39'0 0.0
2017-May-19 17:59N 54°23' E 018°39'0 0.0
2017-May-19 17:29N 54°23' E 018°39'0 0.0
2017-May-19 16:56N 54°23' E 018°39'0 0.0
2017-May-19 16:29N 54°23' E 018°39'0 0.0
2017-May-19 15:59N 54°23' E 018°39'0 0.0
2017-May-19 15:29N 54°23' E 018°39'0 0.0
2017-May-19 14:59N 54°23' E 018°39'0 0.0
2017-May-19 13:59N 54°23' E 018°39'0 0.0
2017-May-19 13:29N 54°23' E 018°39'0 0.0
2017-May-19 12:59N 54°23' E 018°39'0 0.0
2017-May-19 12:29N 54°23' E 018°39'0 0.0
2017-May-19 11:59N 54°23' E 018°39'0 0.0
2017-May-19 11:29N 54°23' E 018°39'0 0.0
2017-May-19 10:59N 54°23' E 018°39'0 0.0
2017-May-19 10:29N 54°23' E 018°39'0 0.0
2017-May-19 09:59N 54°23' E 018°39'0 0.0
2017-May-19 09:29N 54°23' E 018°39'0 0.0
2017-May-19 08:59N 54°23' E 018°39'0 0.0
2017-May-19 08:29N 54°23' E 018°39'0 0.8
2017-May-19 08:00N 54°23' E 018°40'2 3.6
2017-May-19 07:30N 54°25' E 018°39'3 6.8
2017-May-19 07:00N 54°28' E 018°42'510.1
2017-May-19 06:30N 54°32' E 018°47'510.2
2017-May-19 06:00N 54°36' E 018°53'510.2
2017-May-19 05:30N 54°40' E 018°57'510.6
2017-May-19 05:00N 54°45' E 019°00'5 9.8
2017-May-19 04:30N 54°49' E 018°54'510.5
2017-May-19 04:00N 54°52' E 018°47'510.2
2017-May-19 03:30N 54°55' E 018°40'510.0
2017-May-19 03:00N 54°58' E 018°33'510.3
2017-May-19 02:30N 54°57' E 018°24'510.2
2017-May-19 02:00N 54°57' E 018°15'510.2
2017-May-19 01:30N 54°56' E 018°06'510.2
2017-May-19 01:00N 54°55' E 017°58'510.4
2017-May-19 00:29N 54°54' E 017°48'510.4
2017-May-19 00:00N 54°54' E 017°40'710.4
2017-May-18 23:20N 54°53' E 017°27'410.4
2017-May-18 22:55N 54°52' E 017°20'10010.3
2017-May-18 13:14N 54°10' E 014°44'210.2
2017-May-18 13:00N 54°09' E 014°41'510.3
2017-May-18 12:30N 54°06' E 014°33'510.4
2017-May-18 12:00N 54°04' E 014°25'510.3
2017-May-18 11:30N 54°01' E 014°18'4 9.0
2017-May-18 11:00N 53°57' E 014°17'6 7.9
2017-May-18 10:15N 53°51' E 014°18'2 9.1
2017-May-18 10:00N 53°49' E 014°20'5 9.9
2017-May-18 09:30N 53°45' E 014°25'511.0
2017-May-18 09:00N 53°41' E 014°31'5 9.9
2017-May-18 08:30N 53°36' E 014°35'5 9.8
2017-May-18 08:00N 53°32' E 014°38'4 8.7
2017-May-18 07:30N 53°28' E 014°36'2 3.7
2017-May-18 07:00N 53°26' E 014°35'0 0.0
2017-May-18 06:29N 53°26' E 014°35'0 0.0
2017-May-18 05:59N 53°26' E 014°35'0 0.0
2017-May-18 05:29N 53°26' E 014°35'0 0.0
2017-May-18 04:59N 53°26' E 014°35'0 0.0
2017-May-18 04:29N 53°26' E 014°35'0 0.0
2017-May-18 03:59N 53°26' E 014°35'0 0.0
2017-May-18 03:29N 53°26' E 014°35'0 0.0
2017-May-18 02:59N 53°26' E 014°35'0 0.0
2017-May-18 02:29N 53°26' E 014°35'0 0.0
2017-May-18 01:59N 53°26' E 014°35'0 0.0
2017-May-18 01:29N 53°26' E 014°35'0 0.0
2017-May-18 00:59N 53°26' E 014°35'0 0.0
2017-May-18 00:29N 53°26' E 014°35'0 0.0
2017-May-17 23:59N 53°26' E 014°35'0 0.0
2017-May-17 23:29N 53°26' E 014°35'0 0.0
2017-May-17 22:59N 53°26' E 014°35'0 0.0
2017-May-17 22:29N 53°26' E 014°35'0 0.0
2017-May-17 21:59N 53°26' E 014°35'0 0.0
2017-May-17 21:29N 53°26' E 014°35'0 0.0
2017-May-17 20:59N 53°26' E 014°35'0 0.0
2017-May-17 20:29N 53°26' E 014°35'0 0.0
2017-May-17 19:59N 53°26' E 014°35'0 0.0
2017-May-17 19:29N 53°26' E 014°35'0 0.0
2017-May-17 18:59N 53°26' E 014°35'0 0.0
2017-May-17 18:23N 53°26' E 014°35'0 0.0
2017-May-17 17:59N 53°26' E 014°35'0 0.0
2017-May-17 17:29N 53°26' E 014°35'0 0.0
2017-May-17 16:59N 53°26' E 014°35'0 0.0
2017-May-17 16:29N 53°26' E 014°35'0 0.0
2017-May-17 15:59N 53°26' E 014°35'0 0.0
2017-May-17 15:29N 53°26' E 014°35'0 0.0
2017-May-17 14:59N 53°26' E 014°35'0 0.0
2017-May-17 14:29N 53°26' E 014°35'0 0.0
2017-May-17 13:29N 53°26' E 014°35'0 0.0
2017-May-17 12:59N 53°26' E 014°35'0 0.0
2017-May-17 12:29N 53°26' E 014°35'0 0.0
2017-May-17 11:59N 53°26' E 014°35'1 1.4
2017-May-17 11:30N 53°26' E 014°35'4 7.9
2017-May-17 11:00N 53°30' E 014°38'4 8.9
2017-May-17 10:31N 53°35' E 014°36'5 9.0
2017-May-17 10:00N 53°39' E 014°33'5 9.3
2017-May-17 09:30N 53°42' E 014°28'5 9.7
2017-May-17 09:00N 53°46' E 014°23'70 8.9
2017-May-17 01:10N 54°41' E 015°38'210.6
2017-May-17 01:00N 54°42' E 015°40'1310.4
2017-May-16 23:42N 54°52' E 015°56'210.1
2017-May-16 23:30N 54°54' E 015°57'5 9.8
2017-May-16 23:00N 54°57' E 016°04'510.2
2017-May-16 22:30N 55°00' E 016°11'510.3
2017-May-16 22:00N 55°04' E 016°17'510.2
2017-May-16 21:30N 55°07' E 016°24'510.1
2017-May-16 21:00N 55°11' E 016°30'510.1
2017-May-16 20:30N 55°14' E 016°37'5 9.9
2017-May-16 20:00N 55°16' E 016°44'510.2
2017-May-16 19:30N 55°17' E 016°53'4 8.8
2017-May-16 19:00N 55°20' E 016°59'5 9.0
2017-May-16 18:30N 55°24' E 017°01'5 9.3
2017-May-16 18:00N 55°28' E 017°06'5 9.4
2017-May-16 17:30N 55°31' E 017°12'5 9.3
2017-May-16 17:00N 55°34' E 017°18'5 9.3
2017-May-16 16:30N 55°38' E 017°24'5 9.3
2017-May-16 16:00N 55°41' E 017°30'5 9.4
2017-May-16 15:30N 55°44' E 017°36'5 9.5
2017-May-16 15:00N 55°47' E 017°43'5 9.5
2017-May-16 14:30N 55°51' E 017°49'8 8.2
2017-May-16 13:30N 55°56' E 017°60'5 9.6
2017-May-16 13:00N 55°58' E 018°07'5 9.5
2017-May-16 12:30N 56°02' E 018°12'5 9.5
2017-May-16 12:00N 56°06' E 018°17'5 9.6
2017-May-16 11:31N 56°10' E 018°22'5 9.5
2017-May-16 11:00N 56°12' E 018°29'5 9.6
2017-May-16 10:30N 56°16' E 018°35'5 9.5
2017-May-16 10:00N 56°19' E 018°42'5 9.2
2017-May-16 09:30N 56°22' E 018°48'5 9.5
2017-May-16 09:00N 56°26' E 018°52'5 9.5
2017-May-16 08:30N 56°30' E 018°57'5 9.6
2017-May-16 08:00N 56°34' E 019°01'5 9.7
2017-May-16 07:30N 56°39' E 019°05'6 9.6
2017-May-16 06:55N 56°44' E 019°10'9 9.6
2017-May-16 06:02N 56°51' E 019°17'0 9.8
2017-May-16 06:00N 56°51' E 019°17'5 9.6
2017-May-16 05:30N 56°56' E 019°21'5 9.5
2017-May-16 05:00N 56°60' E 019°26'5 9.6
2017-May-16 04:30N 57°04' E 019°30'  
Track history (hours):
 
Tides and Currents Weather Stations Pressure Air Temp Water Temp Dewpoint Dewpoint Depression Visibility Wind Speed Wind Dir Waves Ship Positions

Flinterduin

Last reported at 2017-May-25 13:29 UTC. Time now 2017-May-25 14:13 UTC.
Position N 57°21' E 008°26'.

Length 112 m; beam 15 m.

Type: Cargo ship. MMSI: 246484000.

Date/timePositionNaut miles runAvg speedWind from/ knotsBaromVisibWave heightAir tempDewpointWater temp
2017-May-25 13:29N 57°21' E 008°26'5 9.6
2017-May-25 13:00N 57°23' E 008°34'5 9.7
2017-May-25 12:29N 57°26' E 008°42'5 9.7
2017-May-25 12:00N 57°28' E 008°50'5 9.7
2017-May-25 11:30N 57°30' E 008°58'5 9.8
2017-May-25 10:59N 57°33' E 009°06'5 9.8
2017-May-25 10:30N 57°35' E 009°14'5 9.9
2017-May-25 10:00N 57°38' E 009°22'5 9.6
2017-May-25 09:29N 57°40' E 009°30'510.0
2017-May-25 08:59N 57°42' E 009°38'510.1
2017-May-25 08:30N 57°45' E 009°46'5 9.9
2017-May-25 08:00N 57°46' E 009°55'510.1
2017-May-25 07:29N 57°48' E 010°04'510.1
2017-May-25 07:00N 57°49' E 010°13'510.3
2017-May-25 06:30N 57°49' E 010°22'5 9.7
2017-May-25 06:00N 57°49' E 010°32'5 9.1
2017-May-25 05:30N 57°49' E 010°40'4 8.3
2017-May-25 05:00N 57°48' E 010°48'5 8.7
2017-May-25 04:28N 57°44' E 010°54'5 9.4
2017-May-25 03:59N 57°41' E 011°00'5 9.9
2017-May-25 03:30N 57°38' E 011°07'510.0
2017-May-25 03:00N 57°35' E 011°14'5 9.6
2017-May-25 02:30N 57°32' E 011°21'5 9.2
2017-May-25 02:00N 57°29' E 011°27'5 9.0
2017-May-25 01:30N 57°24' E 011°30'5 9.8
2017-May-25 01:00N 57°20' E 011°31'510.5
2017-May-25 00:30N 57°15' E 011°35'510.9
2017-May-25 00:00N 57°10' E 011°38'610.8
2017-May-24 23:29N 57°04' E 011°42'610.4
2017-May-24 22:58N 56°59' E 011°45'510.4
2017-May-24 22:27N 56°54' E 011°49'510.1
2017-May-24 22:00N 56°50' E 011°52'40 9.7
2017-May-24 17:55N 56°14' E 012°23'410.3
2017-May-24 17:30N 56°11' E 012°28'510.0
2017-May-24 17:00N 56°07' E 012°34'5 9.4
2017-May-24 16:30N 56°04' E 012°39'4 7.9
2017-May-24 16:00N 55°60' E 012°42'4 8.4
2017-May-24 15:30N 55°56' E 012°45'4 8.2
2017-May-24 15:00N 55°52' E 012°45'4 8.6
2017-May-24 14:30N 55°48' E 012°43'9 8.8
2017-May-24 13:31N 55°39' E 012°42'4 7.5
2017-May-24 13:00N 55°35' E 012°42'3 7.0
2017-May-24 12:30N 55°32' E 012°43'4 8.5
2017-May-24 12:00N 55°28' E 012°42'4 8.7
2017-May-24 11:31N 55°23' E 012°41'4 8.7
2017-May-24 11:00N 55°19' E 012°41'4 8.7
2017-May-24 10:30N 55°17' E 012°48'5 9.5
2017-May-24 10:00N 55°15' E 012°55'5 9.6
2017-May-24 09:30N 55°12' E 013°02'5 9.8
2017-May-24 09:00N 55°09' E 013°09'19 9.7
2017-May-24 07:05N 54°58' E 013°35'2 9.1
2017-May-24 06:53N 54°57' E 013°37'3 9.1
2017-May-24 06:30N 54°54' E 013°41'12 9.6
2017-May-24 05:17N 54°47' E 013°57'10 9.5
2017-May-24 04:14N 54°41' E 014°10'28 9.3
2017-May-24 01:11N 54°40' E 014°59'210.2
2017-May-24 01:00N 54°41' E 015°03'710.2
2017-May-24 00:17N 54°42' E 015°15'310.3
2017-May-23 23:59N 54°43' E 015°20'810.4
2017-May-23 23:11N 54°45' E 015°34'310.4
2017-May-23 22:52N 54°46' E 015°40'7910.3
2017-May-23 15:10N 54°57' E 017°56'210.3
2017-May-23 15:00N 54°57' E 017°59'1010.3
2017-May-23 14:00N 54°57' E 018°17'510.3
2017-May-23 13:31N 54°58' E 018°26'510.4
2017-May-23 13:01N 54°58' E 018°35'510.0
2017-May-23 12:31N 54°56' E 018°43'5 9.4
2017-May-23 12:00N 54°52' E 018°48'5 9.9
2017-May-23 11:31N 54°49' E 018°54'5 9.6
2017-May-23 11:00N 54°45' E 018°60'4 8.5
2017-May-23 10:31N 54°41' E 018°59'510.0
2017-May-23 10:00N 54°36' E 018°56'510.0
2017-May-23 09:30N 54°32' E 018°51'510.2
2017-May-23 09:00N 54°29' E 018°44'5 9.3
2017-May-23 08:30N 54°26' E 018°39'2 4.8
2017-May-23 08:00N 54°23' E 018°40'1 1.0
2017-May-23 07:26N 54°23' E 018°39'0 0.0
2017-May-23 06:59N 54°23' E 018°39'0 0.0
2017-May-23 06:29N 54°23' E 018°39'0 0.0
2017-May-23 05:59N 54°23' E 018°39'0 0.0
2017-May-23 05:29N 54°23' E 018°39'0 0.0
2017-May-23 04:59N 54°23' E 018°39'0 0.0
2017-May-23 04:29N 54°23' E 018°39'0 0.0
2017-May-23 03:59N 54°23' E 018°39'0 0.0
2017-May-23 03:29N 54°23' E 018°39'0 0.0
2017-May-23 02:56N 54°23' E 018°39'0 0.0
2017-May-23 02:29N 54°23' E 018°39'0 0.0
2017-May-23 01:59N 54°23' E 018°39'0 0.0
2017-May-23 01:29N 54°23' E 018°39'0 0.0
2017-May-23 00:59N 54°23' E 018°39'0 0.0
2017-May-23 00:29N 54°23' E 018°39'0 0.0
2017-May-22 23:59N 54°23' E 018°39'0 0.0
2017-May-22 23:29N 54°23' E 018°39'0 0.0
2017-May-22 22:58N 54°23' E 018°39'0 0.0
2017-May-22 22:28N 54°23' E 018°39'0 0.0
2017-May-22 21:58N 54°23' E 018°39'0 0.0
2017-May-22 21:28N 54°23' E 018°39'0 0.0
2017-May-22 20:58N 54°23' E 018°39'0 0.0
2017-May-22 20:28N 54°23' E 018°39'0 0.0
2017-May-22 19:58N 54°23' E 018°39'0 0.0
2017-May-22 19:28N 54°23' E 018°39'0 0.0
2017-May-22 18:58N 54°23' E 018°39'0 0.0
2017-May-22 18:28N 54°23' E 018°39'0 0.0
2017-May-22 17:58N 54°23' E 018°39'0 0.0
2017-May-22 17:28N 54°23' E 018°39'0 0.0
2017-May-22 16:58N 54°23' E 018°39'0 0.0
2017-May-22 16:28N 54°23' E 018°39'0 0.0
2017-May-22 15:58N 54°23' E 018°39'0 0.0
2017-May-22 15:28N 54°23' E 018°39'0 0.0
2017-May-22 14:58N 54°23' E 018°39'0 0.0
2017-May-22 13:58N 54°23' E 018°39'0 0.0
2017-May-22 13:28N 54°23' E 018°39'0 0.0
2017-May-22 12:58N 54°23' E 018°39'0 0.0
2017-May-22 12:28N 54°23' E 018°39'0 0.0
2017-May-22 11:58N 54°23' E 018°39'0 0.0
2017-May-22 11:28N 54°23' E 018°39'0 0.0
2017-May-22 10:58N 54°23' E 018°39'0 0.0
2017-May-22 10:28N 54°23' E 018°39'0 0.0
2017-May-22 09:58N 54°23' E 018°39'0 0.0
2017-May-22 09:28N 54°23' E 018°39'0 0.0
2017-May-22 08:58N 54°23' E 018°39'0 0.0
2017-May-22 08:22N 54°23' E 018°39'0 0.0
2017-May-22 07:55N 54°23' E 018°39'0 0.0
2017-May-22 07:28N 54°23' E 018°39'0 0.0
2017-May-22 06:58N 54°23' E 018°39'0 0.0
2017-May-22 06:28N 54°23' E 018°39'0 0.0
2017-May-22 05:58N 54°23' E 018°39'0 0.0
2017-May-22 05:28N 54°23' E 018°39'0 0.0
2017-May-22 04:58N 54°23' E 018°39'0 0.0
2017-May-22 04:28N 54°23' E 018°39'0 0.0
2017-May-22 03:58N 54°23' E 018°39'0 0.0
2017-May-22 03:28N 54°23' E 018°39'0 0.0
2017-May-22 02:58N 54°23' E 018°39'0 0.0
2017-May-22 02:28N 54°23' E 018°39'0 0.0
2017-May-22 01:58N 54°23' E 018°39'0 0.0
2017-May-22 01:28N 54°23' E 018°39'0 0.0
2017-May-22 00:58N 54°23' E 018°39'0 0.0
2017-May-22 00:28N 54°23' E 018°39'0 0.0
2017-May-21 23:58N 54°23' E 018°39'0 0.0
2017-May-21 23:28N 54°23' E 018°39'0 0.0
2017-May-21 22:58N 54°23' E 018°39'0 0.0
2017-May-21 22:28N 54°23' E 018°39'0 0.0
2017-May-21 21:58N 54°23' E 018°39'0 0.0
2017-May-21 21:28N 54°23' E 018°39'0 0.0
2017-May-21 20:58N 54°23' E 018°39'0 0.0
2017-May-21 20:28N 54°23' E 018°39'0 0.0
2017-May-21 19:58N 54°23' E 018°39'0 0.0
2017-May-21 19:28N 54°23' E 018°39'0 0.0
2017-May-21 18:58N 54°23' E 018°39'0 0.0
2017-May-21 18:28N 54°23' E 018°39'0 0.0
2017-May-21 17:58N 54°23' E 018°39'0 0.0
2017-May-21 17:28N 54°23' E 018°39'0 0.0
2017-May-21 16:58N 54°23' E 018°39'0 0.0
2017-May-21 16:28N 54°23' E 018°39'0 0.0
2017-May-21 15:58N 54°23' E 018°39'0 0.0
2017-May-21 15:28N 54°23' E 018°39'0 0.0
2017-May-21 14:58N 54°23' E 018°39'0 0.0
2017-May-21 14:25N 54°23' E 018°39'0 0.0
2017-May-21 13:28N 54°23' E 018°39'0 0.0
2017-May-21 12:58N 54°23' E 018°39'0 0.0
2017-May-21 12:31N 54°23' E 018°39'0 0.0
2017-May-21 12:01N 54°23' E 018°39'0 0.0
2017-May-21 11:30N 54°23' E 018°39'0 0.0
2017-May-21 11:00N 54°23' E 018°39'0 0.0
2017-May-21 10:30N 54°23' E 018°39'0 0.0
2017-May-21 10:00N 54°23' E 018°39'0 0.0
2017-May-21 09:30N 54°23' E 018°39'0 0.0
2017-May-21 09:00N 54°23' E 018°39'0 0.0
2017-May-21 08:30N 54°23' E 018°39'0 0.0
2017-May-21 08:00N 54°23' E 018°39'0 0.0
2017-May-21 07:30N 54°23' E 018°39'0 0.0
2017-May-21 07:00N 54°23' E 018°39'0 0.0
2017-May-21 06:30N 54°23' E 018°39'0 0.0
2017-May-21 06:00N 54°23' E 018°39'0 0.0
2017-May-21 05:30N 54°23' E 018°39'0 0.0
2017-May-21 05:00N 54°23' E 018°39'0 0.0
2017-May-21 04:30N 54°23' E 018°39'0 0.0
2017-May-21 04:00N 54°23' E 018°39'0 0.0
2017-May-21 03:30N 54°23' E 018°39'0 0.0
2017-May-21 03:00N 54°23' E 018°39'0 0.0
2017-May-21 02:30N 54°23' E 018°39'0 0.0
2017-May-21 02:00N 54°23' E 018°39'0 0.0
2017-May-21 01:27N 54°23' E 018°39'0 0.0
2017-May-21 01:00N 54°23' E 018°39'0 0.0
2017-May-21 00:30N 54°23' E 018°39'0 0.0
2017-May-21 00:00N 54°23' E 018°39'0 0.0
2017-May-20 23:30N 54°23' E 018°39'0 0.0
2017-May-20 23:00N 54°23' E 018°39'0 0.0
2017-May-20 22:30N 54°23' E 018°39'0 0.0
2017-May-20 22:00N 54°23' E 018°39'0 0.0
2017-May-20 21:30N 54°23' E 018°39'0 0.0
2017-May-20 21:00N 54°23' E 018°39'0 0.0
2017-May-20 20:30N 54°23' E 018°39'0 0.0
2017-May-20 20:00N 54°23' E 018°39'0 0.0
2017-May-20 19:30N 54°23' E 018°39'0 0.0
2017-May-20 19:00N 54°23' E 018°39'0 0.0
2017-May-20 18:30N 54°23' E 018°39'0 0.0
2017-May-20 18:00N 54°23' E 018°39'0 0.0
2017-May-20 17:30N 54°23' E 018°39'0 0.0
2017-May-20 17:00N 54°23' E 018°39'0 0.0
2017-May-20 16:30N 54°23' E 018°39'0 0.0
2017-May-20 16:00N 54°23' E 018°39'0 0.0
2017-May-20 15:30N 54°23' E 018°39'0 0.0
2017-May-20 15:00N 54°23' E 018°39'0 0.0
2017-May-20 14:00N 54°23' E 018°39'0 0.0
2017-May-20 13:30N 54°23' E 018°39'0 0.0
2017-May-20 13:00N 54°23' E 018°39'0 0.0
2017-May-20 12:30N 54°23' E 018°39'0 0.0
2017-May-20 12:00N 54°23' E 018°39'0 0.0
2017-May-20 11:30N 54°23' E 018°39'0 0.0
2017-May-20 11:00N 54°23' E 018°39'0 0.0
2017-May-20 10:30N 54°23' E 018°39'0 0.0
2017-May-20 10:00N 54°23' E 018°39'0 0.0
2017-May-20 09:30N 54°23' E 018°39'0 0.0
2017-May-20 09:00N 54°23' E 018°39'0 0.0
2017-May-20 08:30N 54°23' E 018°39'0 0.0
2017-May-20 08:00N 54°23' E 018°39'0 0.0
2017-May-20 07:30N 54°23' E 018°39'0 0.0
2017-May-20 07:00N 54°23' E 018°39'0 0.0
2017-May-20 06:30N 54°23' E 018°39'0 0.0
2017-May-20 06:00N 54°23' E 018°39'0 0.0
2017-May-20 05:30N 54°23' E 018°39'0 0.0
2017-May-20 05:00N 54°23' E 018°39'0 0.0
2017-May-20 04:30N 54°23' E 018°39'0 0.0
2017-May-20 04:00N 54°23' E 018°39'0 0.0
2017-May-20 03:30N 54°23' E 018°39'0 0.0
2017-May-20 03:00N 54°23' E 018°39'0 0.0
2017-May-20 02:30N 54°23' E 018°39'0 0.0
2017-May-20 02:00N 54°23' E 018°39'0 0.0
2017-May-20 01:30N 54°23' E 018°39'0 0.0
2017-May-20 01:00N 54°23' E 018°39'0 0.0
2017-May-20 00:30N 54°23' E 018°39'0 0.0
2017-May-20 00:00N 54°23' E 018°39'0 0.0
2017-May-19 23:29N 54°23' E 018°39'0 0.0
2017-May-19 22:59N 54°23' E 018°39'0 0.0
2017-May-19 22:29N 54°23' E 018°39'0 0.0
2017-May-19 21:59N 54°23' E 018°39'0 0.0
2017-May-19 21:29N 54°23' E 018°39'0 0.0
2017-May-19 20:59N 54°23' E 018°39'0 0.0
2017-May-19 20:29N 54°23' E 018°39'0 0.0
2017-May-19 19:59N 54°23' E 018°39'0 0.0
2017-May-19 19:29N 54°23' E 018°39'0 0.0
2017-May-19 18:59N 54°23' E 018°39'0 0.0
2017-May-19 18:29N 54°23' E 018°39'0 0.0
2017-May-19 17:59N 54°23' E 018°39'0 0.0
2017-May-19 17:29N 54°23' E 018°39'0 0.0
2017-May-19 16:56N 54°23' E 018°39'0 0.0
2017-May-19 16:29N 54°23' E 018°39'0 0.0
2017-May-19 15:59N 54°23' E 018°39'0 0.0
2017-May-19 15:29N 54°23' E 018°39'0 0.0
2017-May-19 14:59N 54°23' E 018°39'0 0.0
2017-May-19 13:59N 54°23' E 018°39'0 0.0
2017-May-19 13:29N 54°23' E 018°39'0 0.0
2017-May-19 12:59N 54°23' E 018°39'0 0.0
2017-May-19 12:29N 54°23' E 018°39'0 0.0
2017-May-19 11:59N 54°23' E 018°39'0 0.0
2017-May-19 11:29N 54°23' E 018°39'0 0.0
2017-May-19 10:59N 54°23' E 018°39'0 0.0
2017-May-19 10:29N 54°23' E 018°39'0 0.0
2017-May-19 09:59N 54°23' E 018°39'0 0.0
2017-May-19 09:29N 54°23' E 018°39'0 0.0
2017-May-19 08:59N 54°23' E 018°39'0 0.0
2017-May-19 08:29N 54°23' E 018°39'0 0.8
2017-May-19 08:00N 54°23' E 018°40'2 3.6
2017-May-19 07:30N 54°25' E 018°39'3 6.8
2017-May-19 07:00N 54°28' E 018°42'510.1
2017-May-19 06:30N 54°32' E 018°47'510.2
2017-May-19 06:00N 54°36' E 018°53'510.2
2017-May-19 05:30N 54°40' E 018°57'510.6
2017-May-19 05:00N 54°45' E 019°00'5 9.8
2017-May-19 04:30N 54°49' E 018°54'510.5
2017-May-19 04:00N 54°52' E 018°47'510.2
2017-May-19 03:30N 54°55' E 018°40'510.0
2017-May-19 03:00N 54°58' E 018°33'510.3
2017-May-19 02:30N 54°57' E 018°24'510.2
2017-May-19 02:00N 54°57' E 018°15'510.2
2017-May-19 01:30N 54°56' E 018°06'510.2
2017-May-19 01:00N 54°55' E 017°58'510.4
2017-May-19 00:29N 54°54' E 017°48'510.4
2017-May-19 00:00N 54°54' E 017°40'710.4
2017-May-18 23:20N 54°53' E 017°27'410.4
2017-May-18 22:55N 54°52' E 017°20'10010.3
2017-May-18 13:14N 54°10' E 014°44'210.2
2017-May-18 13:00N 54°09' E 014°41'510.3
2017-May-18 12:30N 54°06' E 014°33'510.4
2017-May-18 12:00N 54°04' E 014°25'510.3
2017-May-18 11:30N 54°01' E 014°18'4 9.0
2017-May-18 11:00N 53°57' E 014°17'6 7.9
2017-May-18 10:15N 53°51' E 014°18'2 9.1
2017-May-18 10:00N 53°49' E 014°20'5 9.9
2017-May-18 09:30N 53°45' E 014°25'511.0
2017-May-18 09:00N 53°41' E 014°31'5 9.9
2017-May-18 08:30N 53°36' E 014°35'5 9.8
2017-May-18 08:00N 53°32' E 014°38'4 8.7
2017-May-18 07:30N 53°28' E 014°36'2 3.7
2017-May-18 07:00N 53°26' E 014°35'0 0.0
2017-May-18 06:29N 53°26' E 014°35'0 0.0
2017-May-18 05:59N 53°26' E 014°35'0 0.0
2017-May-18 05:29N 53°26' E 014°35'0 0.0
2017-May-18 04:59N 53°26' E 014°35'0 0.0
2017-May-18 04:29N 53°26' E 014°35'0 0.0
2017-May-18 03:59N 53°26' E 014°35'0 0.0
2017-May-18 03:29N 53°26' E 014°35'0 0.0
2017-May-18 02:59N 53°26' E 014°35'0 0.0
2017-May-18 02:29N 53°26' E 014°35'0 0.0
2017-May-18 01:59N 53°26' E 014°35'0 0.0
2017-May-18 01:29N 53°26' E 014°35'0 0.0
2017-May-18 00:59N 53°26' E 014°35'0 0.0
2017-May-18 00:29N 53°26' E 014°35'0 0.0
2017-May-17 23:59N 53°26' E 014°35'0 0.0
2017-May-17 23:29N 53°26' E 014°35'0 0.0
2017-May-17 22:59N 53°26' E 014°35'0 0.0
2017-May-17 22:29N 53°26' E 014°35'0 0.0
2017-May-17 21:59N 53°26' E 014°35'0 0.0
2017-May-17 21:29N 53°26' E 014°35'0 0.0
2017-May-17 20:59N 53°26' E 014°35'0 0.0
2017-May-17 20:29N 53°26' E 014°35'0 0.0
2017-May-17 19:59N 53°26' E 014°35'0 0.0
2017-May-17 19:29N 53°26' E 014°35'0 0.0
2017-May-17 18:59N 53°26' E 014°35'0 0.0
2017-May-17 18:23N 53°26' E 014°35'0 0.0
2017-May-17 17:59N 53°26' E 014°35'0 0.0
2017-May-17 17:29N 53°26' E 014°35'0 0.0
2017-May-17 16:59N 53°26' E 014°35'0 0.0
2017-May-17 16:29N 53°26' E 014°35'0 0.0
2017-May-17 15:59N 53°26' E 014°35'0 0.0
2017-May-17 15:29N 53°26' E 014°35'0 0.0
2017-May-17 14:59N 53°26' E 014°35'0 0.0
2017-May-17 14:29N 53°26' E 014°35'0 0.0
2017-May-17 13:29N 53°26' E 014°35'0 0.0
2017-May-17 12:59N 53°26' E 014°35'0 0.0
2017-May-17 12:29N 53°26' E 014°35'0 0.0
2017-May-17 11:59N 53°26' E 014°35'1 1.4
2017-May-17 11:30N 53°26' E 014°35'4 7.9
2017-May-17 11:00N 53°30' E 014°38'4 8.9
2017-May-17 10:31N 53°35' E 014°36'5 9.0
2017-May-17 10:00N 53°39' E 014°33'5 9.3
2017-May-17 09:30N 53°42' E 014°28'5 9.7
2017-May-17 09:00N 53°46' E 014°23'70 8.9
2017-May-17 01:10N 54°41' E 015°38'210.6
2017-May-17 01:00N 54°42' E 015°40'1310.4
2017-May-16 23:42N 54°52' E 015°56'210.1
2017-May-16 23:30N 54°54' E 015°57'5 9.8
2017-May-16 23:00N 54°57' E 016°04'510.2
2017-May-16 22:30N 55°00' E 016°11'510.3
2017-May-16 22:00N 55°04' E 016°17'510.2
2017-May-16 21:30N 55°07' E 016°24'510.1
2017-May-16 21:00N 55°11' E 016°30'510.1
2017-May-16 20:30N 55°14' E 016°37'5 9.9
2017-May-16 20:00N 55°16' E 016°44'510.2
2017-May-16 19:30N 55°17' E 016°53'4 8.8
2017-May-16 19:00N 55°20' E 016°59'5 9.0
2017-May-16 18:30N 55°24' E 017°01'5 9.3
2017-May-16 18:00N 55°28' E 017°06'5 9.4
2017-May-16 17:30N 55°31' E 017°12'5 9.3
2017-May-16 17:00N 55°34' E 017°18'5 9.3
2017-May-16 16:30N 55°38' E 017°24'5 9.3
2017-May-16 16:00N 55°41' E 017°30'5 9.4
2017-May-16 15:30N 55°44' E 017°36'5 9.5
2017-May-16 15:00N 55°47' E 017°43'5 9.5
2017-May-16 14:30N 55°51' E 017°49'8 8.2
2017-May-16 13:30N 55°56' E 017°60'5 9.6
2017-May-16 13:00N 55°58' E 018°07'5 9.5
2017-May-16 12:30N 56°02' E 018°12'5 9.5
2017-May-16 12:00N 56°06' E 018°17'5 9.6
2017-May-16 11:31N 56°10' E 018°22'5 9.5
2017-May-16 11:00N 56°12' E 018°29'5 9.6
2017-May-16 10:30N 56°16' E 018°35'5 9.5
2017-May-16 10:00N 56°19' E 018°42'5 9.2
2017-May-16 09:30N 56°22' E 018°48'5 9.5
2017-May-16 09:00N 56°26' E 018°52'5 9.5
2017-May-16 08:30N 56°30' E 018°57'5 9.6
2017-May-16 08:00N 56°34' E 019°01'5 9.7
2017-May-16 07:30N 56°39' E 019°05'6 9.6
2017-May-16 06:55N 56°44' E 019°10'9 9.6
2017-May-16 06:02N 56°51' E 019°17'0 9.8
2017-May-16 06:00N 56°51' E 019°17'5 9.6
2017-May-16 05:30N 56°56' E 019°21'5 9.5
2017-May-16 05:00N 56°60' E 019°26'5 9.6
2017-May-16 04:30N 57°04' E 019°30'  

Dump ship's entire track history